sensor_id;sensor_type;location;lat;lon;timestamp;pressure;altitude;pressure_sealevel;temperature;humidity
34931;BME280;21134;49.646;8.560;2023-06-22T00:01:11;100431.13;;;23.32;78.75
34931;BME280;21134;49.646;8.560;2023-06-22T00:03:38;100432.22;;;23.28;78.94
34931;BME280;21134;49.646;8.560;2023-06-22T00:06:04;100429.88;;;23.24;79.45
34931;BME280;21134;49.646;8.560;2023-06-22T00:08:31;100439.38;;;23.25;79.59
34931;BME280;21134;49.646;8.560;2023-06-22T00:10:58;100445.72;;;23.20;79.63
34931;BME280;21134;49.646;8.560;2023-06-22T00:13:25;100440.81;;;23.14;80.10
34931;BME280;21134;49.646;8.560;2023-06-22T00:15:52;100440.88;;;23.13;80.50
34931;BME280;21134;49.646;8.560;2023-06-22T00:18:18;100448.13;;;23.08;80.82
34931;BME280;21134;49.646;8.560;2023-06-22T00:20:45;100463.28;;;23.01;81.20
34931;BME280;21134;49.646;8.560;2023-06-22T00:23:12;100486.28;;;22.93;81.53
34931;BME280;21134;49.646;8.560;2023-06-22T00:25:41;100496.28;;;22.85;81.76
34931;BME280;21134;49.646;8.560;2023-06-22T00:28:08;100505.97;;;22.83;81.80
34931;BME280;21134;49.646;8.560;2023-06-22T00:30:35;100527.59;;;22.85;81.17
34931;BME280;21134;49.646;8.560;2023-06-22T00:33:02;100544.31;;;22.81;81.09
34931;BME280;21134;49.646;8.560;2023-06-22T00:35:28;100544.41;;;22.79;81.16
34931;BME280;21134;49.646;8.560;2023-06-22T00:37:55;100530.13;;;22.86;80.72
34931;BME280;21134;49.646;8.560;2023-06-22T00:40:25;100523.97;;;22.87;80.74
34931;BME280;21134;49.646;8.560;2023-06-22T00:42:52;100521.16;;;22.92;80.86
34931;BME280;21134;49.646;8.560;2023-06-22T00:45:20;100536.75;;;22.93;80.67
34931;BME280;21134;49.646;8.560;2023-06-22T00:47:47;100576.72;;;22.94;80.62
34931;BME280;21134;49.646;8.560;2023-06-22T00:50:18;100649.44;;;23.02;80.90
34931;BME280;21134;49.646;8.560;2023-06-22T00:52:47;100700.50;;;23.07;80.52
34931;BME280;21134;49.646;8.560;2023-06-22T00:55:14;100751.38;;;22.98;81.56
34931;BME280;21134;49.646;8.560;2023-06-22T00:57:43;100774.84;;;22.98;81.43
34931;BME280;21134;49.646;8.560;2023-06-22T01:00:11;100764.19;;;23.03;81.31
34931;BME280;21134;49.646;8.560;2023-06-22T01:02:45;100679.75;;;23.21;80.77
34931;BME280;21134;49.646;8.560;2023-06-22T01:05:13;100576.16;;;23.22;82.92
34931;BME280;21134;49.646;8.560;2023-06-22T01:07:42;100572.66;;;23.06;87.42
34931;BME280;21134;49.646;8.560;2023-06-22T01:10:16;100560.44;;;22.71;90.98
34931;BME280;21134;49.646;8.560;2023-06-22T01:12:48;100521.19;;;22.57;91.18
34931;BME280;21134;49.646;8.560;2023-06-22T01:17:49;100423.91;;;22.55;92.70
34931;BME280;21134;49.646;8.560;2023-06-22T01:22:57;100413.50;;;22.38;93.86
34931;BME280;21134;49.646;8.560;2023-06-22T01:25:31;100422.88;;;22.24;95.12
34931;BME280;21134;49.646;8.560;2023-06-22T01:28:04;100434.69;;;22.32;93.10
34931;BME280;21134;49.646;8.560;2023-06-22T01:30:33;100435.81;;;22.26;94.32
34931;BME280;21134;49.646;8.560;2023-06-22T01:33:02;100453.69;;;22.16;96.04
34931;BME280;21134;49.646;8.560;2023-06-22T01:35:31;100454.13;;;22.07;96.70
34931;BME280;21134;49.646;8.560;2023-06-22T01:37:58;100461.47;;;21.99;98.50
34931;BME280;21134;49.646;8.560;2023-06-22T01:40:25;100466.69;;;21.99;99.60
34931;BME280;21134;49.646;8.560;2023-06-22T01:42:52;100455.94;;;21.88;100.00
34931;BME280;21134;49.646;8.560;2023-06-22T01:45:20;100463.84;;;21.86;100.00
34931;BME280;21134;49.646;8.560;2023-06-22T01:47:48;100475.44;;;21.79;100.00
34931;BME280;21134;49.646;8.560;2023-06-22T01:50:15;100478.06;;;21.79;100.00
34931;BME280;21134;49.646;8.560;2023-06-22T01:52:42;100484.28;;;21.76;100.00
34931;BME280;21134;49.646;8.560;2023-06-22T01:55:08;100487.16;;;21.70;100.00
34931;BME280;21134;49.646;8.560;2023-06-22T01:57:35;100481.19;;;21.68;100.00
34931;BME280;21134;49.646;8.560;2023-06-22T02:00:04;100480.19;;;21.71;100.00
34931;BME280;21134;49.646;8.560;2023-06-22T02:02:35;100481.03;;;21.71;100.00
34931;BME280;21134;49.646;8.560;2023-06-22T02:05:06;100481.13;;;21.70;100.00
34931;BME280;21134;49.646;8.560;2023-06-22T02:07:39;100488.56;;;21.58;100.00
34931;BME280;21134;49.646;8.560;2023-06-22T02:10:09;100496.81;;;21.49;100.00
34931;BME280;21134;49.646;8.560;2023-06-22T02:12:37;100501.47;;;21.43;100.00
34931;BME280;21134;49.646;8.560;2023-06-22T02:15:06;100498.06;;;21.41;100.00
34931;BME280;21134;49.646;8.560;2023-06-22T02:17:33;100488.72;;;21.36;100.00
34931;BME280;21134;49.646;8.560;2023-06-22T02:20:01;100485.75;;;21.25;100.00
34931;BME280;21134;49.646;8.560;2023-06-22T02:22:30;100491.69;;;21.08;100.00
34931;BME280;21134;49.646;8.560;2023-06-22T02:24:56;100485.47;;;21.12;100.00
34931;BME280;21134;49.646;8.560;2023-06-22T02:27:23;100483.63;;;21.14;100.00
34931;BME280;21134;49.646;8.560;2023-06-22T02:29:50;100481.09;;;21.13;100.00
34931;BME280;21134;49.646;8.560;2023-06-22T02:32:16;100483.97;;;21.07;100.00
34931;BME280;21134;49.646;8.560;2023-06-22T02:34:43;100478.63;;;21.10;100.00
34931;BME280;21134;49.646;8.560;2023-06-22T02:37:12;100473.22;;;21.14;100.00
34931;BME280;21134;49.646;8.560;2023-06-22T02:39:41;100472.38;;;21.14;100.00
34931;BME280;21134;49.646;8.560;2023-06-22T02:42:07;100485.59;;;21.09;100.00
34931;BME280;21134;49.646;8.560;2023-06-22T02:44:35;100474.41;;;21.07;100.00
34931;BME280;21134;49.646;8.560;2023-06-22T02:47:02;100470.56;;;21.16;100.00
34931;BME280;21134;49.646;8.560;2023-06-22T02:49:29;100475.81;;;21.14;100.00
34931;BME280;21134;49.646;8.560;2023-06-22T02:51:57;100461.69;;;21.20;100.00
34931;BME280;21134;49.646;8.560;2023-06-22T02:54:23;100457.59;;;21.14;100.00
34931;BME280;21134;49.646;8.560;2023-06-22T02:56:52;100456.69;;;21.16;100.00
34931;BME280;21134;49.646;8.560;2023-06-22T02:59:18;100452.75;;;21.26;100.00
34931;BME280;21134;49.646;8.560;2023-06-22T03:01:49;100436.06;;;21.11;100.00
34931;BME280;21134;49.646;8.560;2023-06-22T03:04:15;100446.00;;;21.03;100.00
34931;BME280;21134;49.646;8.560;2023-06-22T03:06:42;100436.56;;;21.00;100.00
34931;BME280;21134;49.646;8.560;2023-06-22T03:09:08;100446.28;;;20.97;100.00
34931;BME280;21134;49.646;8.560;2023-06-22T03:11:36;100454.22;;;20.94;100.00
34931;BME280;21134;49.646;8.560;2023-06-22T03:14:03;100441.91;;;20.97;100.00
34931;BME280;21134;49.646;8.560;2023-06-22T03:16:30;100440.38;;;20.93;100.00
34931;BME280;21134;49.646;8.560;2023-06-22T03:18:58;100436.19;;;20.89;100.00
34931;BME280;21134;49.646;8.560;2023-06-22T03:21:28;100433.59;;;20.89;100.00
34931;BME280;21134;49.646;8.560;2023-06-22T03:23:55;100433.72;;;20.86;100.00
34931;BME280;21134;49.646;8.560;2023-06-22T03:26:22;100434.53;;;20.88;100.00
34931;BME280;21134;49.646;8.560;2023-06-22T03:28:51;100433.69;;;20.87;100.00
34931;BME280;21134;49.646;8.560;2023-06-22T03:31:19;100425.53;;;20.95;100.00
34931;BME280;21134;49.646;8.560;2023-06-22T03:33:46;100426.31;;;20.97;100.00
34931;BME280;21134;49.646;8.560;2023-06-22T03:36:13;100421.38;;;20.91;100.00
34931;BME280;21134;49.646;8.560;2023-06-22T03:38:41;100421.25;;;20.94;100.00
34931;BME280;21134;49.646;8.560;2023-06-22T03:41:08;100418.41;;;20.99;100.00
34931;BME280;21134;49.646;8.560;2023-06-22T03:43:34;100420.44;;;20.92;100.00
34931;BME280;21134;49.646;8.560;2023-06-22T03:46:00;100425.88;;;20.87;100.00
34931;BME280;21134;49.646;8.560;2023-06-22T03:48:28;100426.56;;;20.91;100.00
34931;BME280;21134;49.646;8.560;2023-06-22T03:50:55;100415.19;;;20.94;100.00
34931;BME280;21134;49.646;8.560;2023-06-22T03:53:21;100420.25;;;20.97;100.00
34931;BME280;21134;49.646;8.560;2023-06-22T03:55:48;100422.78;;;20.98;100.00
34931;BME280;21134;49.646;8.560;2023-06-22T03:58:16;100421.03;;;20.99;100.00
34931;BME280;21134;49.646;8.560;2023-06-22T04:00:44;100428.53;;;21.05;100.00
34931;BME280;21134;49.646;8.560;2023-06-22T04:03:10;100437.91;;;21.09;100.00
34931;BME280;21134;49.646;8.560;2023-06-22T04:05:39;100433.84;;;21.03;100.00
34931;BME280;21134;49.646;8.560;2023-06-22T04:08:05;100441.78;;;21.00;100.00
34931;BME280;21134;49.646;8.560;2023-06-22T04:10:32;100443.59;;;20.98;100.00
34931;BME280;21134;49.646;8.560;2023-06-22T04:12:59;100451.94;;;20.86;100.00
34931;BME280;21134;49.646;8.560;2023-06-22T04:15:25;100452.22;;;20.80;100.00
34931;BME280;21134;49.646;8.560;2023-06-22T04:17:54;100439.78;;;20.86;100.00
34931;BME280;21134;49.646;8.560;2023-06-22T04:20:21;100435.75;;;21.00;100.00
34931;BME280;21134;49.646;8.560;2023-06-22T04:22:48;100431.38;;;21.19;100.00
34931;BME280;21134;49.646;8.560;2023-06-22T04:25:15;100434.88;;;21.18;100.00
34931;BME280;21134;49.646;8.560;2023-06-22T04:27:41;100433.63;;;21.27;100.00
34931;BME280;21134;49.646;8.560;2023-06-22T04:30:08;100431.47;;;21.36;100.00
34931;BME280;21134;49.646;8.560;2023-06-22T04:32:36;100434.84;;;21.39;100.00
34931;BME280;21134;49.646;8.560;2023-06-22T04:35:03;100430.47;;;21.39;100.00
34931;BME280;21134;49.646;8.560;2023-06-22T04:37:30;100427.72;;;21.42;100.00
34931;BME280;21134;49.646;8.560;2023-06-22T04:39:58;100432.94;;;21.42;100.00
34931;BME280;21134;49.646;8.560;2023-06-22T04:42:26;100427.50;;;21.47;100.00
34931;BME280;21134;49.646;8.560;2023-06-22T04:44:52;100420.47;;;21.49;100.00
34931;BME280;21134;49.646;8.560;2023-06-22T04:47:19;100426.47;;;21.51;100.00
34931;BME280;21134;49.646;8.560;2023-06-22T04:49:46;100421.81;;;21.57;100.00
34931;BME280;21134;49.646;8.560;2023-06-22T04:52:13;100435.38;;;21.64;100.00
34931;BME280;21134;49.646;8.560;2023-06-22T04:54:45;100429.88;;;21.70;100.00
34931;BME280;21134;49.646;8.560;2023-06-22T04:57:15;100421.03;;;21.73;98.52
34931;BME280;21134;49.646;8.560;2023-06-22T04:59:42;100420.59;;;21.82;97.28
34931;BME280;21134;49.646;8.560;2023-06-22T05:02:09;100423.16;;;21.83;97.60
34931;BME280;21134;49.646;8.560;2023-06-22T05:04:36;100420.75;;;21.79;97.67
34931;BME280;21134;49.646;8.560;2023-06-22T05:07:04;100417.94;;;22.01;95.24
34931;BME280;21134;49.646;8.560;2023-06-22T05:09:31;100411.03;;;22.00;94.64
34931;BME280;21134;49.646;8.560;2023-06-22T05:11:58;100403.84;;;22.05;94.38
34931;BME280;21134;49.646;8.560;2023-06-22T05:14:28;100412.66;;;22.02;94.03
34931;BME280;21134;49.646;8.560;2023-06-22T05:16:55;100395.25;;;22.03;94.32
34931;BME280;21134;49.646;8.560;2023-06-22T05:19:23;100386.81;;;21.98;94.11
34931;BME280;21134;49.646;8.560;2023-06-22T05:21:50;100397.25;;;22.15;92.89
34931;BME280;21134;49.646;8.560;2023-06-22T05:24:17;100392.09;;;22.14;92.59
34931;BME280;21134;49.646;8.560;2023-06-22T05:26:43;100395.50;;;22.16;93.29
34931;BME280;21134;49.646;8.560;2023-06-22T05:29:09;100391.06;;;22.18;92.68
34931;BME280;21134;49.646;8.560;2023-06-22T05:31:37;100395.47;;;22.33;91.43
34931;BME280;21134;49.646;8.560;2023-06-22T05:34:05;100382.81;;;22.43;90.66
34931;BME280;21134;49.646;8.560;2023-06-22T05:36:31;100384.69;;;22.41;91.21
34931;BME280;21134;49.646;8.560;2023-06-22T05:38:58;100388.66;;;22.48;91.54
34931;BME280;21134;49.646;8.560;2023-06-22T05:41:24;100388.16;;;22.57;91.09
34931;BME280;21134;49.646;8.560;2023-06-22T05:43:51;100385.41;;;22.60;90.66
34931;BME280;21134;49.646;8.560;2023-06-22T05:46:18;100377.94;;;22.70;90.20
34931;BME280;21134;49.646;8.560;2023-06-22T05:48:46;100384.94;;;22.85;90.37
34931;BME280;21134;49.646;8.560;2023-06-22T05:51:13;100384.22;;;22.99;89.51
34931;BME280;21134;49.646;8.560;2023-06-22T05:53:39;100384.31;;;23.13;87.83
34931;BME280;21134;49.646;8.560;2023-06-22T05:56:06;100394.06;;;23.26;87.90
34931;BME280;21134;49.646;8.560;2023-06-22T05:58:32;100393.66;;;23.33;84.91
34931;BME280;21134;49.646;8.560;2023-06-22T06:00:59;100383.22;;;23.33;85.52
34931;BME280;21134;49.646;8.560;2023-06-22T06:03:26;100383.72;;;23.40;85.55
34931;BME280;21134;49.646;8.560;2023-06-22T06:05:55;100388.81;;;23.41;85.98
34931;BME280;21134;49.646;8.560;2023-06-22T06:08:22;100386.53;;;23.51;85.99
34931;BME280;21134;49.646;8.560;2023-06-22T06:10:48;100380.22;;;23.71;85.28
34931;BME280;21134;49.646;8.560;2023-06-22T06:13:15;100388.97;;;23.70;85.89
34931;BME280;21134;49.646;8.560;2023-06-22T06:15:41;100372.72;;;23.65;86.31
34931;BME280;21134;49.646;8.560;2023-06-22T06:18:08;100373.09;;;23.89;83.99
34931;BME280;21134;49.646;8.560;2023-06-22T06:20:34;100380.22;;;24.01;82.29
34931;BME280;21134;49.646;8.560;2023-06-22T06:23:02;100382.56;;;24.06;81.30
34931;BME280;21134;49.646;8.560;2023-06-22T06:25:28;100380.63;;;24.24;82.28
34931;BME280;21134;49.646;8.560;2023-06-22T06:27:55;100388.03;;;24.31;79.49
34931;BME280;21134;49.646;8.560;2023-06-22T06:30:22;100385.97;;;24.36;78.74
34931;BME280;21134;49.646;8.560;2023-06-22T06:32:49;100373.84;;;24.50;80.45
34931;BME280;21134;49.646;8.560;2023-06-22T06:35:16;100378.91;;;24.67;76.42
34931;BME280;21134;49.646;8.560;2023-06-22T06:37:44;100371.66;;;24.85;73.69
34931;BME280;21134;49.646;8.560;2023-06-22T06:40:14;100361.81;;;25.03;73.32
34931;BME280;21134;49.646;8.560;2023-06-22T06:42:42;100359.66;;;25.24;73.08
34931;BME280;21134;49.646;8.560;2023-06-22T06:45:10;100361.50;;;25.49;71.71
34931;BME280;21134;49.646;8.560;2023-06-22T06:47:37;100356.31;;;25.62;71.82
34931;BME280;21134;49.646;8.560;2023-06-22T06:50:04;100360.34;;;25.80;69.94
34931;BME280;21134;49.646;8.560;2023-06-22T06:52:31;100360.69;;;25.88;70.58
34931;BME280;21134;49.646;8.560;2023-06-22T06:54:58;100362.19;;;26.05;69.11
34931;BME280;21134;49.646;8.560;2023-06-22T06:57:25;100359.56;;;26.05;68.77
34931;BME280;21134;49.646;8.560;2023-06-22T06:59:54;100354.84;;;26.23;68.25
34931;BME280;21134;49.646;8.560;2023-06-22T07:02:20;100356.81;;;26.32;67.44
34931;BME280;21134;49.646;8.560;2023-06-22T07:04:47;100363.97;;;26.43;67.58
34931;BME280;21134;49.646;8.560;2023-06-22T07:07:14;100356.09;;;26.56;66.59
34931;BME280;21134;49.646;8.560;2023-06-22T07:09:40;100351.56;;;26.58;65.14
34931;BME280;21134;49.646;8.560;2023-06-22T07:12:07;100356.31;;;26.53;66.72
34931;BME280;21134;49.646;8.560;2023-06-22T07:14:35;100357.78;;;26.57;65.62
34931;BME280;21134;49.646;8.560;2023-06-22T07:17:02;100353.78;;;26.64;66.40
34931;BME280;21134;49.646;8.560;2023-06-22T07:19:28;100347.22;;;26.82;64.96
34931;BME280;21134;49.646;8.560;2023-06-22T07:21:56;100350.25;;;26.89;64.84
34931;BME280;21134;49.646;8.560;2023-06-22T07:24:24;100343.16;;;27.02;64.09
34931;BME280;21134;49.646;8.560;2023-06-22T07:26:50;100338.88;;;27.01;65.09
34931;BME280;21134;49.646;8.560;2023-06-22T07:29:17;100337.06;;;27.02;63.66
34931;BME280;21134;49.646;8.560;2023-06-22T07:31:47;100337.91;;;27.02;63.78
34931;BME280;21134;49.646;8.560;2023-06-22T07:34:14;100332.81;;;27.12;63.98
34931;BME280;21134;49.646;8.560;2023-06-22T07:36:41;100329.78;;;27.18;63.75
34931;BME280;21134;49.646;8.560;2023-06-22T07:39:07;100333.28;;;27.19;64.77
34931;BME280;21134;49.646;8.560;2023-06-22T07:41:34;100335.03;;;27.42;63.66
34931;BME280;21134;49.646;8.560;2023-06-22T07:44:01;100342.09;;;27.42;63.61
34931;BME280;21134;49.646;8.560;2023-06-22T07:46:28;100343.00;;;27.41;63.36
34931;BME280;21134;49.646;8.560;2023-06-22T07:48:56;100341.72;;;27.35;63.09
34931;BME280;21134;49.646;8.560;2023-06-22T07:51:23;100344.34;;;27.35;63.35
34931;BME280;21134;49.646;8.560;2023-06-22T07:53:49;100351.25;;;27.60;61.94
34931;BME280;21134;49.646;8.560;2023-06-22T07:56:16;100345.78;;;27.74;61.75
34931;BME280;21134;49.646;8.560;2023-06-22T07:58:44;100342.72;;;27.92;61.94
34931;BME280;21134;49.646;8.560;2023-06-22T08:01:11;100343.63;;;28.15;61.13
34931;BME280;21134;49.646;8.560;2023-06-22T08:03:37;100346.25;;;28.26;60.36
34931;BME280;21134;49.646;8.560;2023-06-22T08:06:06;100344.69;;;28.35;60.31
34931;BME280;21134;49.646;8.560;2023-06-22T08:08:34;100345.06;;;28.19;60.07
34931;BME280;21134;49.646;8.560;2023-06-22T08:11:01;100335.25;;;28.32;60.18
34931;BME280;21134;49.646;8.560;2023-06-22T08:13:27;100345.53;;;28.35;59.31
34931;BME280;21134;49.646;8.560;2023-06-22T08:15:54;100326.63;;;28.52;58.41
34931;BME280;21134;49.646;8.560;2023-06-22T08:18:20;100317.44;;;28.58;57.80
34931;BME280;21134;49.646;8.560;2023-06-22T08:20:47;100316.59;;;28.58;58.49
34931;BME280;21134;49.646;8.560;2023-06-22T08:23:14;100314.25;;;28.87;58.04
34931;BME280;21134;49.646;8.560;2023-06-22T08:25:41;100308.13;;;29.09;57.46
34931;BME280;21134;49.646;8.560;2023-06-22T08:28:07;100303.41;;;29.24;56.53
34931;BME280;21134;49.646;8.560;2023-06-22T08:30:34;100302.91;;;29.51;56.26
34931;BME280;21134;49.646;8.560;2023-06-22T08:33:01;100307.97;;;29.75;54.93
34931;BME280;21134;49.646;8.560;2023-06-22T08:35:28;100306.88;;;29.77;54.83
34931;BME280;21134;49.646;8.560;2023-06-22T08:37:54;100302.50;;;29.66;54.36
34931;BME280;21134;49.646;8.560;2023-06-22T08:40:23;100309.88;;;29.52;55.64
34931;BME280;21134;49.646;8.560;2023-06-22T08:42:50;100315.44;;;29.37;55.12
34931;BME280;21134;49.646;8.560;2023-06-22T08:45:16;100294.06;;;29.19;56.25
34931;BME280;21134;49.646;8.560;2023-06-22T08:47:43;100292.53;;;29.38;56.80
34931;BME280;21134;49.646;8.560;2023-06-22T08:50:10;100297.16;;;29.78;54.90
34931;BME280;21134;49.646;8.560;2023-06-22T08:52:37;100304.38;;;30.06;53.90
34931;BME280;21134;49.646;8.560;2023-06-22T08:55:07;100301.16;;;30.24;53.02
34931;BME280;21134;49.646;8.560;2023-06-22T08:57:35;100298.69;;;30.32;53.69
34931;BME280;21134;49.646;8.560;2023-06-22T09:00:05;100299.38;;;30.34;54.08
34931;BME280;21134;49.646;8.560;2023-06-22T09:02:40;100290.13;;;30.49;52.62
34931;BME280;21134;49.646;8.560;2023-06-22T09:05:06;100285.13;;;30.66;52.33
34931;BME280;21134;49.646;8.560;2023-06-22T09:07:33;100279.09;;;30.85;51.56
34931;BME280;21134;49.646;8.560;2023-06-22T09:10:00;100289.38;;;31.07;51.17
34931;BME280;21134;49.646;8.560;2023-06-22T09:12:28;100281.88;;;31.02;51.55
34931;BME280;21134;49.646;8.560;2023-06-22T09:14:57;100284.09;;;30.97;51.82
34931;BME280;21134;49.646;8.560;2023-06-22T09:17:25;100280.69;;;30.66;52.04
34931;BME280;21134;49.646;8.560;2023-06-22T09:19:52;100280.56;;;30.58;52.94
34931;BME280;21134;49.646;8.560;2023-06-22T09:22:19;100277.13;;;30.77;51.53
34931;BME280;21134;49.646;8.560;2023-06-22T09:24:45;100275.56;;;30.74;52.01
34931;BME280;21134;49.646;8.560;2023-06-22T09:27:12;100271.25;;;30.64;51.92
34931;BME280;21134;49.646;8.560;2023-06-22T09:29:39;100275.66;;;30.53;52.09
34931;BME280;21134;49.646;8.560;2023-06-22T09:32:07;100271.31;;;30.83;51.67
34931;BME280;21134;49.646;8.560;2023-06-22T09:34:33;100269.78;;;31.10;51.64
34931;BME280;21134;49.646;8.560;2023-06-22T09:37:00;100269.06;;;31.27;50.47
34931;BME280;21134;49.646;8.560;2023-06-22T09:39:27;100265.13;;;31.70;49.70
34931;BME280;21134;49.646;8.560;2023-06-22T09:41:53;100263.16;;;31.91;47.26
34931;BME280;21134;49.646;8.560;2023-06-22T09:44:20;100255.59;;;31.96;47.92
34931;BME280;21134;49.646;8.560;2023-06-22T09:46:46;100244.13;;;32.06;48.20
34931;BME280;21134;49.646;8.560;2023-06-22T09:49:14;100247.22;;;32.29;46.94
34931;BME280;21134;49.646;8.560;2023-06-22T09:51:41;100233.97;;;32.29;47.01
34931;BME280;21134;49.646;8.560;2023-06-22T09:54:07;100226.72;;;32.31;45.99
34931;BME280;21134;49.646;8.560;2023-06-22T09:56:33;100218.94;;;32.29;47.36
34931;BME280;21134;49.646;8.560;2023-06-22T09:59:00;100217.38;;;32.09;47.21
34931;BME280;21134;49.646;8.560;2023-06-22T10:01:26;100209.53;;;32.17;47.62
34931;BME280;21134;49.646;8.560;2023-06-22T10:03:53;100212.66;;;32.30;47.74
34931;BME280;21134;49.646;8.560;2023-06-22T10:06:22;100201.78;;;32.51;46.31
34931;BME280;21134;49.646;8.560;2023-06-22T10:08:50;100202.34;;;32.73;45.10
34931;BME280;21134;49.646;8.560;2023-06-22T10:11:16;100193.34;;;32.83;45.60
34931;BME280;21134;49.646;8.560;2023-06-22T10:13:43;100186.69;;;32.97;45.39
34931;BME280;21134;49.646;8.560;2023-06-22T10:16:09;100176.31;;;33.12;44.32
34931;BME280;21134;49.646;8.560;2023-06-22T10:18:36;100175.25;;;32.97;44.63
34931;BME280;21134;49.646;8.560;2023-06-22T10:21:02;100168.63;;;33.01;44.47
34931;BME280;21134;49.646;8.560;2023-06-22T10:23:30;100162.09;;;33.13;44.72
34931;BME280;21134;49.646;8.560;2023-06-22T10:25:56;100162.13;;;33.21;44.28
34931;BME280;21134;49.646;8.560;2023-06-22T10:28:23;100158.84;;;33.27;44.53
34931;BME280;21134;49.646;8.560;2023-06-22T10:30:49;100156.38;;;33.52;43.25
34931;BME280;21134;49.646;8.560;2023-06-22T10:33:16;100167.56;;;33.64;42.56
34931;BME280;21134;49.646;8.560;2023-06-22T10:35:42;100163.41;;;33.61;43.32
34931;BME280;21134;49.646;8.560;2023-06-22T10:38:09;100154.31;;;33.72;42.53
34931;BME280;21134;49.646;8.560;2023-06-22T10:40:37;100145.25;;;33.83;44.53
34931;BME280;21134;49.646;8.560;2023-06-22T10:43:04;100141.09;;;33.88;42.42
34931;BME280;21134;49.646;8.560;2023-06-22T10:45:31;100129.31;;;33.91;42.31
34931;BME280;21134;49.646;8.560;2023-06-22T10:47:57;100128.59;;;33.72;42.31
34931;BME280;21134;49.646;8.560;2023-06-22T10:50:25;100124.78;;;33.67;42.65
34931;BME280;21134;49.646;8.560;2023-06-22T10:52:51;100117.38;;;33.95;42.71
34931;BME280;21134;49.646;8.560;2023-06-22T10:55:18;100117.38;;;33.87;42.89
34931;BME280;21134;49.646;8.560;2023-06-22T10:57:46;100117.38;;;33.87;44.06
34931;BME280;21134;49.646;8.560;2023-06-22T11:00:13;100109.97;;;34.07;42.29
34931;BME280;21134;49.646;8.560;2023-06-22T11:02:40;100110.50;;;34.26;43.07
34931;BME280;21134;49.646;8.560;2023-06-22T11:05:07;100098.88;;;34.36;41.61
34931;BME280;21134;49.646;8.560;2023-06-22T11:07:34;100107.00;;;34.42;40.56
34931;BME280;21134;49.646;8.560;2023-06-22T11:10:00;100099.22;;;34.41;41.02
34931;BME280;21134;49.646;8.560;2023-06-22T11:12:26;100096.91;;;34.38;41.06
34931;BME280;21134;49.646;8.560;2023-06-22T11:14:54;100099.78;;;34.53;40.56
34931;BME280;21134;49.646;8.560;2023-06-22T11:17:22;100097.06;;;34.44;41.12
34931;BME280;21134;49.646;8.560;2023-06-22T11:19:49;100103.69;;;34.32;41.28
34931;BME280;21134;49.646;8.560;2023-06-22T11:22:15;100108.16;;;34.23;41.02
34931;BME280;21134;49.646;8.560;2023-06-22T11:24:41;100118.13;;;34.46;40.54
34931;BME280;21134;49.646;8.560;2023-06-22T11:27:08;100107.38;;;34.56;41.16
34931;BME280;21134;49.646;8.560;2023-06-22T11:29:34;100101.06;;;34.65;40.75
34931;BME280;21134;49.646;8.560;2023-06-22T11:32:03;100108.19;;;34.89;40.54
34931;BME280;21134;49.646;8.560;2023-06-22T11:34:29;100091.69;;;35.18;40.00
34931;BME280;21134;49.646;8.560;2023-06-22T11:36:56;100091.00;;;35.32;39.79
34931;BME280;21134;49.646;8.560;2023-06-22T11:39:22;100084.03;;;35.23;40.53
34931;BME280;21134;49.646;8.560;2023-06-22T11:41:49;100081.19;;;35.33;39.18
34931;BME280;21134;49.646;8.560;2023-06-22T11:44:15;100074.13;;;35.56;39.84
34931;BME280;21134;49.646;8.560;2023-06-22T11:46:42;100081.09;;;35.49;39.61
34931;BME280;21134;49.646;8.560;2023-06-22T11:49:09;100072.72;;;35.29;40.30
34931;BME280;21134;49.646;8.560;2023-06-22T11:51:36;100071.72;;;35.22;40.90
34931;BME280;21134;49.646;8.560;2023-06-22T11:54:02;100078.94;;;35.13;40.96
34931;BME280;21134;49.646;8.560;2023-06-22T11:56:29;100089.22;;;35.16;40.67
34931;BME280;21134;49.646;8.560;2023-06-22T11:58:55;100086.19;;;35.20;40.18
34931;BME280;21134;49.646;8.560;2023-06-22T12:01:22;100088.56;;;35.14;40.43
34931;BME280;21134;49.646;8.560;2023-06-22T12:03:48;100090.06;;;34.92;40.20
34931;BME280;21134;49.646;8.560;2023-06-22T12:06:17;100089.88;;;34.94;41.23
34931;BME280;21134;49.646;8.560;2023-06-22T12:08:44;100089.25;;;34.92;40.29
34931;BME280;21134;49.646;8.560;2023-06-22T12:11:10;100087.91;;;35.04;40.14
34931;BME280;21134;49.646;8.560;2023-06-22T12:13:37;100079.41;;;35.17;40.24
34931;BME280;21134;49.646;8.560;2023-06-22T12:16:04;100073.00;;;35.34;40.12
34931;BME280;21134;49.646;8.560;2023-06-22T12:18:30;100069.16;;;35.45;40.86
34931;BME280;21134;49.646;8.560;2023-06-22T12:20:57;100056.31;;;35.49;39.88
34931;BME280;21134;49.646;8.560;2023-06-22T12:23:24;100068.50;;;35.43;39.18
34931;BME280;21134;49.646;8.560;2023-06-22T12:25:51;100065.72;;;35.28;40.35
34931;BME280;21134;49.646;8.560;2023-06-22T12:28:18;100056.44;;;35.16;40.44
34931;BME280;21134;49.646;8.560;2023-06-22T12:30:44;100055.50;;;35.01;41.01
34931;BME280;21134;49.646;8.560;2023-06-22T12:33:11;100067.81;;;34.85;41.72
34931;BME280;21134;49.646;8.560;2023-06-22T12:35:37;100060.47;;;35.12;41.02
34931;BME280;21134;49.646;8.560;2023-06-22T12:38:03;100061.34;;;35.35;40.36
34931;BME280;21134;49.646;8.560;2023-06-22T12:40:33;100070.06;;;35.29;40.19
34931;BME280;21134;49.646;8.560;2023-06-22T12:42:59;100066.78;;;35.50;40.04
34931;BME280;21134;49.646;8.560;2023-06-22T12:45:27;100074.91;;;35.65;39.03
34931;BME280;21134;49.646;8.560;2023-06-22T12:47:58;100069.94;;;35.85;39.05
34931;BME280;21134;49.646;8.560;2023-06-22T12:50:25;100074.38;;;35.93;38.90
34931;BME280;21134;49.646;8.560;2023-06-22T12:52:51;100069.91;;;35.93;38.58